AirNav   Bose Proflight or Bose A20?
 
 862 users online  

17XS Quahadi Ranch Airport
Dublin, Texas, USA

GOING TO DUBLIN?


FAA INFORMATION EFFECTIVE 23 MAY 2019

Location

FAA Identifier: 17XS
Lat/Long: 32-10-39.9470N / 098-26-06.1800W
32-10.665783N / 098-26.103000W
32.1777631 / -98.4350500
(estimated)
Elevation: 1422 ft. / 433 m (estimated)
Variation: 06E (2005)
From city: 7 miles W of DUBLIN, TX
Time zone: UTC -5 (UTC -6 during Standard Time)
Zip code: 76446

Airport Operations

Airport use: Private use. Permission required prior to landing
Activation date: 08/2003
Control tower: no
ARTCC: FORT WORTH CENTER
FSS: FORT WORTH FLIGHT SERVICE STATION
NOTAMs facility: FDC (NOTAM-D service not available)
Attendance: UNATNDD
Wind indicator: yes
Segmented circle: no
Lights: ACTVT MIRL RY 01/19 - 121.6.
Beacon: white-green (lighted land airport)
ACTVT ROTG BCN - 121.6.

Airport Communications

WX AWOS-3 at SEP (13 nm E): 118.075 (254-965-8672)
WX AWOS-3 at MKN (18 nm SW): 118.575 (325-356-7032)

Nearby radio navigation aids

VOR radial/distance  VOR name  Freq  Var
JENr266/28.3GLEN ROSE VORTAC115.0006E
BWDr049/31.6BROWNWOOD VOR/DME108.6008E
MQPr205/39.7MILLSAP VORTAC117.7009E

Airport Services

Runway Information

Runway 1/19

Dimensions: 6295 x 80 ft. / 1919 x 24 m
Surface: concrete, in good condition
Runway edge lights: medium intensity
RUNWAY 1  RUNWAY 19
Latitude: 32-10.178683N32-11.152883N
Longitude: 098-26.314133W098-25.891867W
Elevation: 1312.8 ft.1421.8 ft.
Traffic pattern: leftleft
Displaced threshold: 370 ft.no
Markings: basicbasic
Touchdown point: yes, no lightsyes, no lights

Airport Ownership and Management from official FAA records

Ownership: Privately-owned
Owner: SMITH-FAMILY TRUST NO. 1
4033 GRASSMERE LANE
DALLAS, TX 75205
Phone 214-979-7640
Manager: STEPHEN B. SMITH
4033 GRASSMERE LANE
DALLAS, TX 75205
Phone 214-979-7640

Airport Operational Statistics

Aircraft based on the field: 5
Multi engine airplanes: 2
Jet airplanes: 3
    

Instrument Procedures

There are no published instrument procedures at 17XS.

Some nearby airports with instrument procedures:

KSEP - Stephenville Clark Regional Airport (13 nm E)
KMKN - Comanche County-City Airport (18 nm SW)
KETN - Eastland Municipal Airport (24 nm NW)
KGZN - Gregory M Simmons Memorial Airport (32 nm W)
KMNZ - Hamilton Municipal Airport (34 nm SE)
 
Loc | Ops | Rwys | IFR | FBO | Links
Com | Nav | Svcs | Stats | Notes
Area around 17XS (Quahadi Ranch Airport)
 
Road maps at: MapQuest Bing Google
 
Aerial photo
WARNING: Photo may not be current or correct
Aerial photo of 17XS (Quahadi Ranch Airport)
Do you have a better or more recent aerial photo of Quahadi Ranch Airport that you would like to share? If so, please send us your photo.

 
Sectional chart

 
Airport distance calculator
Flying to Quahadi Ranch Airport? Find the distance to fly.

From to 17XS

Sunrise and sunset
Times for 19-Jun-2019
 Local
(UTC-5)
 Zulu
(UTC)
Morning civil twilight06:0011:00
Sunrise06:2811:28
Sunset20:4201:42
Evening civil twilight21:1002:10

Current date and time
Zulu (UTC)  19-Jun-2019 12:15:59
Local (UTC-5)  19-Jun-2019 07:15:59
 
METAR
KSEP 
14nm E 
191155Z AUTO 18005KT 10SM CLR 22/18 A2986 RMK AO2 T02170182 10259 20211
KMKN 
18nm SW 
191155Z AUTO 18004KT 10SM CLR 21/21 A2986 RMK AO2 70053 T02120212 10263 20207
KETN 
24nm NW 
191155Z AUTO 00000KT 10SM CLR 18/17 A2985 RMK AO2 T01830167 10249 20182
TAF
NOTAMs
Click for the latest NOTAMs
NOTAMs are issued by the DoD/FAA and will open in a separate window not controlled by AirNav.

 

 
 

Aviation Businesses, Services, and Facilities

  
 Business Name 
 
 Contact 
 
 Services / Description 
 
Distance
 
Comments
  
 Meregrass, Inc.
254-445-3322
319-230-6894
[web site]
[email]

Like us on facebook
Aircraft charters

More info about Meregrass, Inc.
on airport  
   write
 

Would you like to see your business listed on this page?

 If your business provides an interesting product or service to pilots, flight crews, aircraft, or users of the Quahadi Ranch Airport, you should consider listing it here.  To start the listing process, click on the button below
 
Add a business
 

Other Pages about Quahadi Ranch Airport

Update a link
 
Copyright © AirNav, LLC. All rights reserved. Privacy Policy  Contact